sensor_id;sensor_type;location;lat;lon;timestamp;P1;durP1;ratioP1;P2;durP2;ratioP2
10122;SDS011;5101;49.038;8.710;2023-02-24T00:01:37;23.10;;;17.35;;
10122;SDS011;5101;49.038;8.710;2023-02-24T00:04:07;22.50;;;17.98;;
10122;SDS011;5101;49.038;8.710;2023-02-24T00:06:36;23.17;;;17.58;;
10122;SDS011;5101;49.038;8.710;2023-02-24T00:11:47;25.50;;;18.98;;
10122;SDS011;5101;49.038;8.710;2023-02-24T00:14:21;25.50;;;18.65;;
10122;SDS011;5101;49.038;8.710;2023-02-24T00:16:48;23.92;;;18.70;;
10122;SDS011;5101;49.038;8.710;2023-02-24T00:19:16;23.27;;;18.38;;
10122;SDS011;5101;49.038;8.710;2023-02-24T00:21:43;23.98;;;18.77;;
10122;SDS011;5101;49.038;8.710;2023-02-24T00:24:09;27.45;;;19.77;;
10122;SDS011;5101;49.038;8.710;2023-02-24T00:26:35;21.13;;;17.17;;
10122;SDS011;5101;49.038;8.710;2023-02-24T00:29:02;23.65;;;17.95;;
10122;SDS011;5101;49.038;8.710;2023-02-24T00:31:29;24.98;;;18.90;;
10122;SDS011;5101;49.038;8.710;2023-02-24T00:33:55;24.95;;;19.30;;
10122;SDS011;5101;49.038;8.710;2023-02-24T00:36:22;23.55;;;18.95;;
10122;SDS011;5101;49.038;8.710;2023-02-24T00:38:48;23.75;;;18.35;;
10122;SDS011;5101;49.038;8.710;2023-02-24T00:41:16;25.13;;;19.13;;
10122;SDS011;5101;49.038;8.710;2023-02-24T00:43:43;25.23;;;18.75;;
10122;SDS011;5101;49.038;8.710;2023-02-24T00:46:13;24.42;;;18.85;;
10122;SDS011;5101;49.038;8.710;2023-02-24T00:48:41;26.00;;;19.08;;
10122;SDS011;5101;49.038;8.710;2023-02-24T00:51:10;25.10;;;18.95;;
10122;SDS011;5101;49.038;8.710;2023-02-24T00:53:37;24.73;;;18.77;;
10122;SDS011;5101;49.038;8.710;2023-02-24T00:56:05;23.40;;;19.45;;
10122;SDS011;5101;49.038;8.710;2023-02-24T00:58:32;27.00;;;19.60;;
10122;SDS011;5101;49.038;8.710;2023-02-24T01:00:59;24.13;;;18.45;;
10122;SDS011;5101;49.038;8.710;2023-02-24T01:03:25;26.30;;;19.35;;
10122;SDS011;5101;49.038;8.710;2023-02-24T01:05:51;22.05;;;18.40;;
10122;SDS011;5101;49.038;8.710;2023-02-24T01:08:17;21.60;;;18.50;;
10122;SDS011;5101;49.038;8.710;2023-02-24T01:10:53;22.63;;;18.38;;
10122;SDS011;5101;49.038;8.710;2023-02-24T01:13:40;25.20;;;18.27;;
10122;SDS011;5101;49.038;8.710;2023-02-24T01:16:05;24.88;;;18.13;;
10122;SDS011;5101;49.038;8.710;2023-02-24T01:18:31;22.80;;;18.02;;
10122;SDS011;5101;49.038;8.710;2023-02-24T01:20:57;24.95;;;18.27;;
10122;SDS011;5101;49.038;8.710;2023-02-24T01:23:23;25.90;;;18.58;;
10122;SDS011;5101;49.038;8.710;2023-02-24T01:25:49;23.45;;;17.65;;
10122;SDS011;5101;49.038;8.710;2023-02-24T01:28:15;23.83;;;18.35;;
10122;SDS011;5101;49.038;8.710;2023-02-24T01:30:41;23.52;;;18.15;;
10122;SDS011;5101;49.038;8.710;2023-02-24T01:33:07;24.05;;;18.33;;
10122;SDS011;5101;49.038;8.710;2023-02-24T01:35:38;23.95;;;18.23;;
10122;SDS011;5101;49.038;8.710;2023-02-24T01:38:04;21.98;;;18.00;;
10122;SDS011;5101;49.038;8.710;2023-02-24T01:40:30;23.13;;;17.95;;
10122;SDS011;5101;49.038;8.710;2023-02-24T01:42:55;23.83;;;18.20;;
10122;SDS011;5101;49.038;8.710;2023-02-24T01:45:24;24.50;;;18.92;;
10122;SDS011;5101;49.038;8.710;2023-02-24T01:47:52;26.70;;;19.17;;
10122;SDS011;5101;49.038;8.710;2023-02-24T01:50:23;23.10;;;17.92;;
10122;SDS011;5101;49.038;8.710;2023-02-24T01:52:51;24.08;;;18.92;;
10122;SDS011;5101;49.038;8.710;2023-02-24T01:57:53;25.30;;;18.63;;
10122;SDS011;5101;49.038;8.710;2023-02-24T02:00:20;24.13;;;18.40;;
10122;SDS011;5101;49.038;8.710;2023-02-24T02:03:29;21.40;;;17.25;;
10122;SDS011;5101;49.038;8.710;2023-02-24T02:06:07;27.48;;;18.77;;
10122;SDS011;5101;49.038;8.710;2023-02-24T02:08:35;25.85;;;18.35;;
10122;SDS011;5101;49.038;8.710;2023-02-24T02:11:06;25.67;;;18.27;;
10122;SDS011;5101;49.038;8.710;2023-02-24T02:13:34;22.90;;;17.27;;
10122;SDS011;5101;49.038;8.710;2023-02-24T02:16:05;24.33;;;18.20;;
10122;SDS011;5101;49.038;8.710;2023-02-24T02:21:48;26.40;;;18.52;;
10122;SDS011;5101;49.038;8.710;2023-02-24T02:24:30;25.00;;;17.85;;
10122;SDS011;5101;49.038;8.710;2023-02-24T02:41:27;26.83;;;18.95;;
10122;SDS011;5101;49.038;8.710;2023-02-24T02:44:02;25.60;;;19.10;;
10122;SDS011;5101;49.038;8.710;2023-02-24T02:46:35;27.00;;;18.67;;
10122;SDS011;5101;49.038;8.710;2023-02-24T02:52:03;25.83;;;19.15;;
10122;SDS011;5101;49.038;8.710;2023-02-24T02:57:13;26.15;;;18.67;;
10122;SDS011;5101;49.038;8.710;2023-02-24T02:59:51;26.27;;;19.90;;
10122;SDS011;5101;49.038;8.710;2023-02-24T03:02:22;29.02;;;20.63;;
10122;SDS011;5101;49.038;8.710;2023-02-24T03:05:00;29.52;;;20.85;;
10122;SDS011;5101;49.038;8.710;2023-02-24T03:07:29;26.90;;;19.45;;
10122;SDS011;5101;49.038;8.710;2023-02-24T03:10:00;28.95;;;20.67;;
10122;SDS011;5101;49.038;8.710;2023-02-24T03:12:33;28.88;;;20.13;;
10122;SDS011;5101;49.038;8.710;2023-02-24T03:15:03;31.00;;;20.17;;
10122;SDS011;5101;49.038;8.710;2023-02-24T03:17:34;30.13;;;21.17;;
10122;SDS011;5101;49.038;8.710;2023-02-24T03:20:07;28.85;;;19.77;;
10122;SDS011;5101;49.038;8.710;2023-02-24T03:22:42;28.80;;;20.13;;
10122;SDS011;5101;49.038;8.710;2023-02-24T03:25:14;27.15;;;19.90;;
10122;SDS011;5101;49.038;8.710;2023-02-24T03:30:25;29.63;;;20.60;;
10122;SDS011;5101;49.038;8.710;2023-02-24T03:33:04;32.00;;;21.33;;
10122;SDS011;5101;49.038;8.710;2023-02-24T03:35:40;30.75;;;21.52;;
10122;SDS011;5101;49.038;8.710;2023-02-24T03:38:07;35.53;;;21.73;;
10122;SDS011;5101;49.038;8.710;2023-02-24T03:40:35;33.58;;;22.30;;
10122;SDS011;5101;49.038;8.710;2023-02-24T03:43:03;30.88;;;21.05;;
10122;SDS011;5101;49.038;8.710;2023-02-24T03:45:37;31.13;;;21.20;;
10122;SDS011;5101;49.038;8.710;2023-02-24T03:48:05;31.80;;;21.55;;
10122;SDS011;5101;49.038;8.710;2023-02-24T03:50:33;32.70;;;21.90;;
10122;SDS011;5101;49.038;8.710;2023-02-24T03:58:58;33.38;;;22.15;;
10122;SDS011;5101;49.038;8.710;2023-02-24T04:04:24;37.13;;;22.20;;
10122;SDS011;5101;49.038;8.710;2023-02-24T04:06:58;32.28;;;21.63;;
10122;SDS011;5101;49.038;8.710;2023-02-24T04:12:22;34.42;;;21.67;;
10122;SDS011;5101;49.038;8.710;2023-02-24T04:14:55;36.47;;;23.40;;
10122;SDS011;5101;49.038;8.710;2023-02-24T04:17:30;34.90;;;22.02;;
10122;SDS011;5101;49.038;8.710;2023-02-24T04:20:04;37.47;;;23.10;;
10122;SDS011;5101;49.038;8.710;2023-02-24T04:22:48;37.38;;;21.63;;
10122;SDS011;5101;49.038;8.710;2023-02-24T04:25:19;38.60;;;23.73;;
10122;SDS011;5101;49.038;8.710;2023-02-24T04:27:48;39.53;;;22.75;;
10122;SDS011;5101;49.038;8.710;2023-02-24T04:30:17;35.13;;;22.20;;
10122;SDS011;5101;49.038;8.710;2023-02-24T04:32:44;37.53;;;23.02;;
10122;SDS011;5101;49.038;8.710;2023-02-24T04:35:13;40.40;;;23.65;;
10122;SDS011;5101;49.038;8.710;2023-02-24T04:37:43;40.40;;;23.30;;
10122;SDS011;5101;49.038;8.710;2023-02-24T04:40:09;39.45;;;24.05;;
10122;SDS011;5101;49.038;8.710;2023-02-24T04:42:37;41.88;;;24.95;;
10122;SDS011;5101;49.038;8.710;2023-02-24T04:45:10;42.38;;;24.85;;
10122;SDS011;5101;49.038;8.710;2023-02-24T04:47:46;41.28;;;25.10;;
10122;SDS011;5101;49.038;8.710;2023-02-24T04:50:15;42.22;;;24.92;;
10122;SDS011;5101;49.038;8.710;2023-02-24T04:52:51;40.67;;;23.77;;
10122;SDS011;5101;49.038;8.710;2023-02-24T04:55:19;40.20;;;25.17;;
10122;SDS011;5101;49.038;8.710;2023-02-24T04:57:47;39.70;;;24.30;;
10122;SDS011;5101;49.038;8.710;2023-02-24T05:00:13;41.65;;;24.63;;
10122;SDS011;5101;49.038;8.710;2023-02-24T05:02:51;42.63;;;24.58;;
10122;SDS011;5101;49.038;8.710;2023-02-24T05:05:19;41.00;;;24.05;;
10122;SDS011;5101;49.038;8.710;2023-02-24T05:07:50;36.92;;;22.50;;
10122;SDS011;5101;49.038;8.710;2023-02-24T05:10:27;37.90;;;23.27;;
10122;SDS011;5101;49.038;8.710;2023-02-24T05:12:54;43.58;;;24.80;;
10122;SDS011;5101;49.038;8.710;2023-02-24T05:15:23;40.72;;;23.25;;
10122;SDS011;5101;49.038;8.710;2023-02-24T05:18:00;39.80;;;24.08;;
10122;SDS011;5101;49.038;8.710;2023-02-24T05:20:36;40.53;;;23.48;;
10122;SDS011;5101;49.038;8.710;2023-02-24T05:23:26;41.65;;;25.10;;
10122;SDS011;5101;49.038;8.710;2023-02-24T05:25:55;39.75;;;23.73;;
10122;SDS011;5101;49.038;8.710;2023-02-24T05:28:22;40.28;;;23.10;;
10122;SDS011;5101;49.038;8.710;2023-02-24T05:30:49;42.90;;;24.55;;
10122;SDS011;5101;49.038;8.710;2023-02-24T05:33:16;45.97;;;26.00;;
10122;SDS011;5101;49.038;8.710;2023-02-24T05:35:45;46.42;;;25.52;;
10122;SDS011;5101;49.038;8.710;2023-02-24T05:38:11;44.92;;;26.52;;
10122;SDS011;5101;49.038;8.710;2023-02-24T05:40:37;45.58;;;26.00;;
10122;SDS011;5101;49.038;8.710;2023-02-24T05:43:10;40.33;;;23.38;;
10122;SDS011;5101;49.038;8.710;2023-02-24T05:45:39;43.22;;;25.02;;
10122;SDS011;5101;49.038;8.710;2023-02-24T05:48:07;44.95;;;24.98;;
10122;SDS011;5101;49.038;8.710;2023-02-24T05:50:33;43.38;;;25.17;;
10122;SDS011;5101;49.038;8.710;2023-02-24T05:52:58;40.78;;;25.20;;
10122;SDS011;5101;49.038;8.710;2023-02-24T05:55:24;45.65;;;26.20;;
10122;SDS011;5101;49.038;8.710;2023-02-24T05:57:49;42.72;;;24.10;;
10122;SDS011;5101;49.038;8.710;2023-02-24T06:00:17;46.25;;;25.85;;
10122;SDS011;5101;49.038;8.710;2023-02-24T06:02:43;45.97;;;27.38;;
10122;SDS011;5101;49.038;8.710;2023-02-24T06:05:15;42.65;;;25.52;;
10122;SDS011;5101;49.038;8.710;2023-02-24T06:07:49;43.92;;;26.45;;
10122;SDS011;5101;49.038;8.710;2023-02-24T06:10:29;44.90;;;25.67;;
10122;SDS011;5101;49.038;8.710;2023-02-24T06:12:57;44.90;;;26.85;;
10122;SDS011;5101;49.038;8.710;2023-02-24T06:15:24;41.78;;;24.70;;
10122;SDS011;5101;49.038;8.710;2023-02-24T06:17:50;44.80;;;25.83;;
10122;SDS011;5101;49.038;8.710;2023-02-24T06:20:16;45.90;;;26.23;;
10122;SDS011;5101;49.038;8.710;2023-02-24T06:22:41;46.03;;;26.13;;
10122;SDS011;5101;49.038;8.710;2023-02-24T06:25:07;46.03;;;26.35;;
10122;SDS011;5101;49.038;8.710;2023-02-24T06:27:35;44.72;;;25.85;;
10122;SDS011;5101;49.038;8.710;2023-02-24T06:30:03;45.17;;;26.90;;
10122;SDS011;5101;49.038;8.710;2023-02-24T06:32:34;45.08;;;26.30;;
10122;SDS011;5101;49.038;8.710;2023-02-24T06:35:00;46.45;;;26.73;;
10122;SDS011;5101;49.038;8.710;2023-02-24T06:37:26;45.00;;;25.75;;
10122;SDS011;5101;49.038;8.710;2023-02-24T06:39:53;42.38;;;24.40;;
10122;SDS011;5101;49.038;8.710;2023-02-24T06:42:19;44.28;;;25.05;;
10122;SDS011;5101;49.038;8.710;2023-02-24T06:44:46;40.42;;;26.05;;
10122;SDS011;5101;49.038;8.710;2023-02-24T06:47:11;44.08;;;26.05;;
10122;SDS011;5101;49.038;8.710;2023-02-24T06:49:38;48.50;;;25.58;;
10122;SDS011;5101;49.038;8.710;2023-02-24T06:52:04;44.13;;;25.40;;
10122;SDS011;5101;49.038;8.710;2023-02-24T06:54:29;46.50;;;26.30;;
10122;SDS011;5101;49.038;8.710;2023-02-24T06:56:59;42.38;;;25.58;;
10122;SDS011;5101;49.038;8.710;2023-02-24T06:59:27;43.33;;;25.70;;
10122;SDS011;5101;49.038;8.710;2023-02-24T07:01:53;43.92;;;25.25;;
10122;SDS011;5101;49.038;8.710;2023-02-24T07:04:22;44.08;;;26.13;;
10122;SDS011;5101;49.038;8.710;2023-02-24T07:06:56;46.45;;;25.10;;
10122;SDS011;5101;49.038;8.710;2023-02-24T07:09:26;45.53;;;24.70;;
10122;SDS011;5101;49.038;8.710;2023-02-24T07:11:52;43.28;;;25.27;;
10122;SDS011;5101;49.038;8.710;2023-02-24T07:14:20;46.17;;;25.48;;
10122;SDS011;5101;49.038;8.710;2023-02-24T07:16:47;45.05;;;25.65;;
10122;SDS011;5101;49.038;8.710;2023-02-24T07:19:18;45.33;;;24.83;;
10122;SDS011;5101;49.038;8.710;2023-02-24T07:21:45;44.22;;;25.52;;
10122;SDS011;5101;49.038;8.710;2023-02-24T07:24:14;44.80;;;26.05;;
10122;SDS011;5101;49.038;8.710;2023-02-24T07:26:53;42.35;;;24.73;;
10122;SDS011;5101;49.038;8.710;2023-02-24T07:29:20;44.92;;;24.38;;
10122;SDS011;5101;49.038;8.710;2023-02-24T07:31:47;42.90;;;24.45;;
10122;SDS011;5101;49.038;8.710;2023-02-24T07:34:12;46.60;;;25.48;;
10122;SDS011;5101;49.038;8.710;2023-02-24T07:36:38;39.35;;;22.08;;
10122;SDS011;5101;49.038;8.710;2023-02-24T07:39:13;42.95;;;25.13;;
10122;SDS011;5101;49.038;8.710;2023-02-24T07:41:39;46.92;;;23.83;;
10122;SDS011;5101;49.038;8.710;2023-02-24T07:44:10;43.80;;;24.70;;
10122;SDS011;5101;49.038;8.710;2023-02-24T07:46:38;43.78;;;24.35;;
10122;SDS011;5101;49.038;8.710;2023-02-24T07:49:04;42.90;;;25.25;;
10122;SDS011;5101;49.038;8.710;2023-02-24T07:51:33;44.53;;;24.08;;
10122;SDS011;5101;49.038;8.710;2023-02-24T07:53:59;46.40;;;25.80;;
10122;SDS011;5101;49.038;8.710;2023-02-24T07:56:27;44.88;;;24.02;;
10122;SDS011;5101;49.038;8.710;2023-02-24T07:58:59;42.45;;;24.35;;
10122;SDS011;5101;49.038;8.710;2023-02-24T08:01:26;40.00;;;23.00;;
10122;SDS011;5101;49.038;8.710;2023-02-24T08:03:59;39.60;;;24.58;;
10122;SDS011;5101;49.038;8.710;2023-02-24T08:06:29;41.35;;;23.00;;
10122;SDS011;5101;49.038;8.710;2023-02-24T08:09:05;44.08;;;24.83;;
10122;SDS011;5101;49.038;8.710;2023-02-24T08:11:44;37.67;;;22.17;;
10122;SDS011;5101;49.038;8.710;2023-02-24T08:14:10;38.75;;;21.90;;
10122;SDS011;5101;49.038;8.710;2023-02-24T08:16:42;38.05;;;21.35;;
10122;SDS011;5101;49.038;8.710;2023-02-24T08:19:10;39.90;;;22.60;;
10122;SDS011;5101;49.038;8.710;2023-02-24T08:21:38;42.70;;;23.05;;
10122;SDS011;5101;49.038;8.710;2023-02-24T08:24:15;36.80;;;22.33;;
10122;SDS011;5101;49.038;8.710;2023-02-24T08:26:44;40.28;;;21.90;;
10122;SDS011;5101;49.038;8.710;2023-02-24T08:29:27;41.63;;;22.00;;
10122;SDS011;5101;49.038;8.710;2023-02-24T08:32:04;36.35;;;21.88;;
10122;SDS011;5101;49.038;8.710;2023-02-24T08:34:34;39.10;;;21.92;;
10122;SDS011;5101;49.038;8.710;2023-02-24T08:37:03;38.55;;;22.15;;
10122;SDS011;5101;49.038;8.710;2023-02-24T08:39:30;39.63;;;22.02;;
10122;SDS011;5101;49.038;8.710;2023-02-24T08:42:00;39.22;;;22.65;;
10122;SDS011;5101;49.038;8.710;2023-02-24T08:44:25;37.10;;;21.48;;
10122;SDS011;5101;49.038;8.710;2023-02-24T08:46:54;38.90;;;23.60;;
10122;SDS011;5101;49.038;8.710;2023-02-24T08:49:20;40.65;;;23.05;;
10122;SDS011;5101;49.038;8.710;2023-02-24T08:51:49;39.95;;;22.15;;
10122;SDS011;5101;49.038;8.710;2023-02-24T08:54:18;41.72;;;22.75;;
10122;SDS011;5101;49.038;8.710;2023-02-24T08:56:51;41.72;;;23.40;;
10122;SDS011;5101;49.038;8.710;2023-02-24T08:59:22;39.67;;;23.15;;
10122;SDS011;5101;49.038;8.710;2023-02-24T09:02:01;40.03;;;23.23;;
10122;SDS011;5101;49.038;8.710;2023-02-24T09:04:54;40.40;;;23.02;;
10122;SDS011;5101;49.038;8.710;2023-02-24T09:07:25;39.20;;;21.73;;
10122;SDS011;5101;49.038;8.710;2023-02-24T09:10:02;36.92;;;21.95;;
10122;SDS011;5101;49.038;8.710;2023-02-24T09:12:35;40.28;;;22.58;;
10122;SDS011;5101;49.038;8.710;2023-02-24T09:15:05;36.40;;;23.13;;
10122;SDS011;5101;49.038;8.710;2023-02-24T09:17:32;42.28;;;23.40;;
10122;SDS011;5101;49.038;8.710;2023-02-24T09:20:37;35.38;;;22.17;;
10122;SDS011;5101;49.038;8.710;2023-02-24T09:23:15;42.53;;;23.70;;
10122;SDS011;5101;49.038;8.710;2023-02-24T09:25:53;44.53;;;23.75;;
10122;SDS011;5101;49.038;8.710;2023-02-24T09:28:24;38.53;;;22.55;;
10122;SDS011;5101;49.038;8.710;2023-02-24T09:30:52;39.08;;;22.60;;
10122;SDS011;5101;49.038;8.710;2023-02-24T09:33:20;40.53;;;23.50;;
10122;SDS011;5101;49.038;8.710;2023-02-24T09:35:57;40.58;;;22.67;;
10122;SDS011;5101;49.038;8.710;2023-02-24T09:38:33;42.28;;;23.92;;
10122;SDS011;5101;49.038;8.710;2023-02-24T09:44:18;41.38;;;22.77;;
10122;SDS011;5101;49.038;8.710;2023-02-24T09:47:11;43.65;;;23.23;;
10122;SDS011;5101;49.038;8.710;2023-02-24T09:52:54;42.60;;;22.73;;
10122;SDS011;5101;49.038;8.710;2023-02-24T09:55:40;39.33;;;23.00;;
10122;SDS011;5101;49.038;8.710;2023-02-24T09:58:30;38.70;;;21.77;;
10122;SDS011;5101;49.038;8.710;2023-02-24T10:01:22;36.15;;;21.83;;
10122;SDS011;5101;49.038;8.710;2023-02-24T10:06:46;35.67;;;21.05;;
10122;SDS011;5101;49.038;8.710;2023-02-24T10:14:51;40.83;;;22.02;;
10122;SDS011;5101;49.038;8.710;2023-02-24T10:17:40;39.67;;;20.83;;
10122;SDS011;5101;49.038;8.710;2023-02-24T10:22:54;35.85;;;21.02;;
10122;SDS011;5101;49.038;8.710;2023-02-24T10:25:33;34.75;;;20.05;;
10122;SDS011;5101;49.038;8.710;2023-02-24T10:30:47;34.40;;;20.20;;
10122;SDS011;5101;49.038;8.710;2023-02-24T10:33:33;38.08;;;21.42;;
10122;SDS011;5101;49.038;8.710;2023-02-24T10:36:13;34.38;;;20.65;;
10122;SDS011;5101;49.038;8.710;2023-02-24T10:38:43;35.75;;;21.40;;
10122;SDS011;5101;49.038;8.710;2023-02-24T10:41:14;36.78;;;20.52;;
10122;SDS011;5101;49.038;8.710;2023-02-24T10:43:51;31.85;;;20.27;;
10122;SDS011;5101;49.038;8.710;2023-02-24T10:46:22;35.00;;;20.67;;
10122;SDS011;5101;49.038;8.710;2023-02-24T10:48:52;32.83;;;20.42;;
10122;SDS011;5101;49.038;8.710;2023-02-24T10:51:24;33.67;;;20.48;;
10122;SDS011;5101;49.038;8.710;2023-02-24T10:54:05;34.85;;;21.05;;
10122;SDS011;5101;49.038;8.710;2023-02-24T10:56:55;34.13;;;19.73;;
10122;SDS011;5101;49.038;8.710;2023-02-24T10:59:55;32.80;;;19.60;;
10122;SDS011;5101;49.038;8.710;2023-02-24T11:02:46;36.50;;;21.35;;
10122;SDS011;5101;49.038;8.710;2023-02-24T11:05:35;34.72;;;19.48;;
10122;SDS011;5101;49.038;8.710;2023-02-24T11:08:20;34.90;;;19.48;;
10122;SDS011;5101;49.038;8.710;2023-02-24T11:11:19;31.38;;;18.83;;
10122;SDS011;5101;49.038;8.710;2023-02-24T11:14:00;30.77;;;19.02;;
10122;SDS011;5101;49.038;8.710;2023-02-24T11:16:46;30.05;;;18.90;;
10122;SDS011;5101;49.038;8.710;2023-02-24T11:19:31;34.55;;;19.58;;
10122;SDS011;5101;49.038;8.710;2023-02-24T11:22:00;32.05;;;18.98;;
10122;SDS011;5101;49.038;8.710;2023-02-24T11:24:26;30.83;;;18.77;;
10122;SDS011;5101;49.038;8.710;2023-02-24T11:26:52;32.28;;;19.70;;
10122;SDS011;5101;49.038;8.710;2023-02-24T11:29:37;32.42;;;18.83;;
10122;SDS011;5101;49.038;8.710;2023-02-24T11:32:49;33.10;;;19.65;;
10122;SDS011;5101;49.038;8.710;2023-02-24T11:40:25;31.20;;;19.35;;
10122;SDS011;5101;49.038;8.710;2023-02-24T11:42:55;32.40;;;17.70;;
10122;SDS011;5101;49.038;8.710;2023-02-24T11:45:29;28.48;;;17.92;;
10122;SDS011;5101;49.038;8.710;2023-02-24T11:48:16;31.42;;;19.45;;
10122;SDS011;5101;49.038;8.710;2023-02-24T11:50:49;30.63;;;19.45;;
10122;SDS011;5101;49.038;8.710;2023-02-24T11:53:24;31.63;;;18.63;;
10122;SDS011;5101;49.038;8.710;2023-02-24T12:03:49;29.35;;;18.45;;
10122;SDS011;5101;49.038;8.710;2023-02-24T12:06:22;28.35;;;18.63;;
10122;SDS011;5101;49.038;8.710;2023-02-24T12:08:52;27.63;;;18.67;;
10122;SDS011;5101;49.038;8.710;2023-02-24T12:11:26;28.77;;;18.08;;
10122;SDS011;5101;49.038;8.710;2023-02-24T12:14:17;31.65;;;18.38;;
10122;SDS011;5101;49.038;8.710;2023-02-24T12:16:51;35.72;;;19.65;;
10122;SDS011;5101;49.038;8.710;2023-02-24T12:19:31;35.97;;;19.40;;
10122;SDS011;5101;49.038;8.710;2023-02-24T12:22:18;36.95;;;20.38;;
10122;SDS011;5101;49.038;8.710;2023-02-24T12:24:48;35.45;;;20.27;;
10122;SDS011;5101;49.038;8.710;2023-02-24T12:38:59;33.25;;;20.33;;
10122;SDS011;5101;49.038;8.710;2023-02-24T12:46:44;29.25;;;19.80;;
10122;SDS011;5101;49.038;8.710;2023-02-24T12:59:30;27.10;;;17.20;;
10122;SDS011;5101;49.038;8.710;2023-02-24T13:02:04;29.30;;;19.30;;
10122;SDS011;5101;49.038;8.710;2023-02-24T13:08:08;30.88;;;17.83;;
10122;SDS011;5101;49.038;8.710;2023-02-24T13:13:21;26.67;;;17.23;;
10122;SDS011;5101;49.038;8.710;2023-02-24T13:15:53;30.98;;;17.95;;
10122;SDS011;5101;49.038;8.710;2023-02-24T13:18:27;27.83;;;17.65;;
10122;SDS011;5101;49.038;8.710;2023-02-24T13:21:02;29.45;;;17.83;;
10122;SDS011;5101;49.038;8.710;2023-02-24T13:23:29;26.45;;;17.35;;
10122;SDS011;5101;49.038;8.710;2023-02-24T13:25:55;31.85;;;19.23;;
10122;SDS011;5101;49.038;8.710;2023-02-24T13:28:28;29.98;;;19.02;;
10122;SDS011;5101;49.038;8.710;2023-02-24T13:31:01;30.75;;;19.17;;
10122;SDS011;5101;49.038;8.710;2023-02-24T13:33:33;31.50;;;18.55;;
10122;SDS011;5101;49.038;8.710;2023-02-24T13:36:08;31.08;;;19.30;;
10122;SDS011;5101;49.038;8.710;2023-02-24T13:47:07;27.63;;;18.02;;
10122;SDS011;5101;49.038;8.710;2023-02-24T13:49:53;30.38;;;18.05;;
10122;SDS011;5101;49.038;8.710;2023-02-24T13:55:37;26.08;;;15.88;;
10122;SDS011;5101;49.038;8.710;2023-02-24T13:58:08;26.65;;;17.88;;
10122;SDS011;5101;49.038;8.710;2023-02-24T14:03:38;29.13;;;17.83;;
10122;SDS011;5101;49.038;8.710;2023-02-24T14:06:06;29.23;;;17.30;;
10122;SDS011;5101;49.038;8.710;2023-02-24T14:08:49;26.92;;;16.92;;
10122;SDS011;5101;49.038;8.710;2023-02-24T14:11:27;26.92;;;16.38;;
10122;SDS011;5101;49.038;8.710;2023-02-24T14:13:55;26.65;;;17.30;;
10122;SDS011;5101;49.038;8.710;2023-02-24T14:16:26;29.02;;;17.30;;
10122;SDS011;5101;49.038;8.710;2023-02-24T14:18:57;27.35;;;17.65;;
10122;SDS011;5101;49.038;8.710;2023-02-24T14:21:26;29.45;;;17.33;;
10122;SDS011;5101;49.038;8.710;2023-02-24T14:23:54;29.20;;;17.23;;
10122;SDS011;5101;49.038;8.710;2023-02-24T14:26:24;26.88;;;17.52;;
10122;SDS011;5101;49.038;8.710;2023-02-24T14:28:57;46.05;;;30.48;;
10122;SDS011;5101;49.038;8.710;2023-02-24T14:31:27;28.98;;;18.95;;
10122;SDS011;5101;49.038;8.710;2023-02-24T14:33:57;29.73;;;17.98;;
10122;SDS011;5101;49.038;8.710;2023-02-24T14:36:26;30.27;;;17.95;;
10122;SDS011;5101;49.038;8.710;2023-02-24T14:41:41;26.67;;;17.27;;
10122;SDS011;5101;49.038;8.710;2023-02-24T14:44:23;25.85;;;16.98;;
10122;SDS011;5101;49.038;8.710;2023-02-24T14:46:54;26.10;;;16.52;;
10122;SDS011;5101;49.038;8.710;2023-02-24T14:49:22;24.73;;;16.45;;
10122;SDS011;5101;49.038;8.710;2023-02-24T14:51:51;22.73;;;15.20;;
10122;SDS011;5101;49.038;8.710;2023-02-24T14:54:56;24.50;;;14.43;;
10122;SDS011;5101;49.038;8.710;2023-02-24T14:58:04;25.40;;;15.85;;
10122;SDS011;5101;49.038;8.710;2023-02-24T15:00:22;24.52;;;15.70;;
10122;SDS011;5101;49.038;8.710;2023-02-24T15:02:51;21.13;;;14.55;;
10122;SDS011;5101;49.038;8.710;2023-02-24T15:05:21;20.25;;;14.30;;
10122;SDS011;5101;49.038;8.710;2023-02-24T15:07:47;24.67;;;15.23;;
10122;SDS011;5101;49.038;8.710;2023-02-24T15:10:16;27.23;;;16.25;;
10122;SDS011;5101;49.038;8.710;2023-02-24T15:12:45;25.42;;;15.48;;
10122;SDS011;5101;49.038;8.710;2023-02-24T15:15:22;21.25;;;14.35;;
10122;SDS011;5101;49.038;8.710;2023-02-24T15:17:58;23.77;;;14.95;;
10122;SDS011;5101;49.038;8.710;2023-02-24T15:20:32;31.35;;;20.20;;
10122;SDS011;5101;49.038;8.710;2023-02-24T15:22:59;21.23;;;15.73;;
10122;SDS011;5101;49.038;8.710;2023-02-24T15:25:30;21.60;;;14.65;;
10122;SDS011;5101;49.038;8.710;2023-02-24T15:28:19;17.95;;;12.98;;
10122;SDS011;5101;49.038;8.710;2023-02-24T15:31:00;22.40;;;13.45;;
10122;SDS011;5101;49.038;8.710;2023-02-24T15:33:31;22.23;;;13.52;;
10122;SDS011;5101;49.038;8.710;2023-02-24T15:36:04;19.67;;;12.32;;
10122;SDS011;5101;49.038;8.710;2023-02-24T15:38:41;22.30;;;12.57;;
10122;SDS011;5101;49.038;8.710;2023-02-24T15:41:08;20.52;;;12.93;;
10122;SDS011;5101;49.038;8.710;2023-02-24T15:43:36;20.40;;;12.68;;
10122;SDS011;5101;49.038;8.710;2023-02-24T15:46:12;20.40;;;12.73;;
10122;SDS011;5101;49.038;8.710;2023-02-24T15:48:57;17.40;;;12.13;;
10122;SDS011;5101;49.038;8.710;2023-02-24T15:53:58;16.00;;;11.82;;
10122;SDS011;5101;49.038;8.710;2023-02-24T15:56:25;18.38;;;12.20;;
10122;SDS011;5101;49.038;8.710;2023-02-24T15:58:50;20.80;;;12.82;;
10122;SDS011;5101;49.038;8.710;2023-02-24T16:01:16;20.40;;;12.70;;
10122;SDS011;5101;49.038;8.710;2023-02-24T16:03:42;19.45;;;12.57;;
10122;SDS011;5101;49.038;8.710;2023-02-24T16:06:11;20.77;;;13.32;;
10122;SDS011;5101;49.038;8.710;2023-02-24T16:08:43;21.00;;;12.63;;
10122;SDS011;5101;49.038;8.710;2023-02-24T16:11:11;17.85;;;11.88;;
10122;SDS011;5101;49.038;8.710;2023-02-24T16:13:38;19.75;;;13.52;;
10122;SDS011;5101;49.038;8.710;2023-02-24T16:16:05;17.13;;;12.63;;
10122;SDS011;5101;49.038;8.710;2023-02-24T16:18:31;22.40;;;15.48;;
10122;SDS011;5101;49.038;8.710;2023-02-24T16:20:57;17.70;;;13.35;;
10122;SDS011;5101;49.038;8.710;2023-02-24T16:23:23;19.42;;;12.50;;
10122;SDS011;5101;49.038;8.710;2023-02-24T16:25:56;17.48;;;12.80;;
10122;SDS011;5101;49.038;8.710;2023-02-24T16:28:23;22.73;;;14.30;;
10122;SDS011;5101;49.038;8.710;2023-02-24T16:30:50;21.02;;;13.93;;
10122;SDS011;5101;49.038;8.710;2023-02-24T16:33:17;18.70;;;13.38;;
10122;SDS011;5101;49.038;8.710;2023-02-24T16:35:46;19.17;;;13.52;;
10122;SDS011;5101;49.038;8.710;2023-02-24T16:38:12;18.73;;;12.95;;
10122;SDS011;5101;49.038;8.710;2023-02-24T16:40:40;22.17;;;11.52;;
10122;SDS011;5101;49.038;8.710;2023-02-24T16:43:07;18.25;;;12.27;;
10122;SDS011;5101;49.038;8.710;2023-02-24T16:45:33;18.20;;;12.63;;
10122;SDS011;5101;49.038;8.710;2023-02-24T16:48:03;20.90;;;12.40;;
10122;SDS011;5101;49.038;8.710;2023-02-24T16:50:36;20.85;;;12.93;;
10122;SDS011;5101;49.038;8.710;2023-02-24T16:53:04;20.45;;;12.25;;
10122;SDS011;5101;49.038;8.710;2023-02-24T16:55:30;19.35;;;12.55;;
10122;SDS011;5101;49.038;8.710;2023-02-24T16:57:57;21.48;;;12.52;;
10122;SDS011;5101;49.038;8.710;2023-02-24T17:00:22;20.55;;;12.63;;
10122;SDS011;5101;49.038;8.710;2023-02-24T17:02:48;18.60;;;11.55;;
10122;SDS011;5101;49.038;8.710;2023-02-24T17:05:19;19.38;;;12.18;;
10122;SDS011;5101;49.038;8.710;2023-02-24T17:07:47;18.27;;;12.45;;
10122;SDS011;5101;49.038;8.710;2023-02-24T17:10:14;16.15;;;11.77;;